sensor_id;sensor_type;location;lat;lon;timestamp;pressure;altitude;pressure_sealevel;temperature;humidity
67980;BME280;54760;47.490;19.030;2022-12-07T00:01:56;100035.59;;;3.31;84.81
67980;BME280;54760;47.490;19.030;2022-12-07T00:04:21;100037.31;;;3.13;86.71
67980;BME280;54760;47.490;19.030;2022-12-07T00:06:51;100041.00;;;3.31;85.98
67980;BME280;54760;47.490;19.030;2022-12-07T00:09:17;100036.22;;;3.55;85.09
67980;BME280;54760;47.490;19.030;2022-12-07T00:11:43;100033.37;;;3.40;84.73
67980;BME280;54760;47.490;19.030;2022-12-07T00:14:12;100029.41;;;3.31;85.93
67980;BME280;54760;47.490;19.030;2022-12-07T00:16:38;100021.91;;;3.17;86.23
67980;BME280;54760;47.490;19.030;2022-12-07T00:19:04;100021.66;;;3.29;84.89
67980;BME280;54760;47.490;19.030;2022-12-07T00:21:38;100011.91;;;3.21;86.18
67980;BME280;54760;47.490;19.030;2022-12-07T00:24:04;100019.31;;;3.68;83.13
67980;BME280;54760;47.490;19.030;2022-12-07T00:26:38;100015.03;;;3.67;84.03
67980;BME280;54760;47.490;19.030;2022-12-07T00:29:06;100008.72;;;3.53;83.55
67980;BME280;54760;47.490;19.030;2022-12-07T00:31:34;100014.78;;;3.39;85.01
67980;BME280;54760;47.490;19.030;2022-12-07T00:34:03;100008.94;;;3.33;84.53
67980;BME280;54760;47.490;19.030;2022-12-07T00:36:29;100006.28;;;3.37;84.99
67980;BME280;54760;47.490;19.030;2022-12-07T00:38:55;99999.31;;;3.36;85.16
67980;BME280;54760;47.490;19.030;2022-12-07T00:41:23;100007.09;;;3.44;84.55
67980;BME280;54760;47.490;19.030;2022-12-07T00:43:50;100006.09;;;3.23;84.95
67980;BME280;54760;47.490;19.030;2022-12-07T00:46:17;100003.16;;;3.35;84.89
67980;BME280;54760;47.490;19.030;2022-12-07T00:48:43;100001.81;;;3.18;85.78
67980;BME280;54760;47.490;19.030;2022-12-07T00:51:10;100003.19;;;3.38;84.74
67980;BME280;54760;47.490;19.030;2022-12-07T00:53:36;99995.78;;;2.95;86.63
67980;BME280;54760;47.490;19.030;2022-12-07T00:56:11;100008.22;;;3.03;86.80
67980;BME280;54760;47.490;19.030;2022-12-07T00:58:37;100004.62;;;3.29;84.88
67980;BME280;54760;47.490;19.030;2022-12-07T01:01:04;99999.75;;;3.04;85.18
67980;BME280;54760;47.490;19.030;2022-12-07T01:03:31;99987.94;;;2.86;85.95
67980;BME280;54760;47.490;19.030;2022-12-07T01:05:56;99997.00;;;3.01;85.89
67980;BME280;54760;47.490;19.030;2022-12-07T01:08:24;99989.56;;;2.91;85.80
67980;BME280;54760;47.490;19.030;2022-12-07T01:10:56;100002.34;;;2.64;86.79
67980;BME280;54760;47.490;19.030;2022-12-07T01:13:22;100000.97;;;2.77;87.11
67980;BME280;54760;47.490;19.030;2022-12-07T01:15:47;99993.63;;;3.11;85.90
67980;BME280;54760;47.490;19.030;2022-12-07T01:18:13;99994.34;;;3.08;85.22
67980;BME280;54760;47.490;19.030;2022-12-07T01:20:38;99995.13;;;3.09;85.00
67980;BME280;54760;47.490;19.030;2022-12-07T01:23:04;99997.53;;;2.80;87.27
67980;BME280;54760;47.490;19.030;2022-12-07T01:25:29;99994.13;;;2.87;86.73
67980;BME280;54760;47.490;19.030;2022-12-07T01:27:55;100000.28;;;2.84;86.24
67980;BME280;54760;47.490;19.030;2022-12-07T01:30:20;99993.63;;;3.11;84.80
67980;BME280;54760;47.490;19.030;2022-12-07T01:32:45;99980.16;;;3.18;83.57
67980;BME280;54760;47.490;19.030;2022-12-07T01:35:11;99984.56;;;2.93;84.80
67980;BME280;54760;47.490;19.030;2022-12-07T01:37:37;99984.94;;;2.95;85.30
67980;BME280;54760;47.490;19.030;2022-12-07T01:40:07;99984.00;;;3.14;83.91
67980;BME280;54760;47.490;19.030;2022-12-07T01:42:34;99981.66;;;2.79;85.46
67980;BME280;54760;47.490;19.030;2022-12-07T01:47:47;99982.00;;;3.07;84.23
67980;BME280;54760;47.490;19.030;2022-12-07T01:50:16;99980.50;;;3.13;84.04
67980;BME280;54760;47.490;19.030;2022-12-07T01:52:42;99986.56;;;3.03;84.02
67980;BME280;54760;47.490;19.030;2022-12-07T01:55:12;99978.81;;;2.98;84.93
67980;BME280;54760;47.490;19.030;2022-12-07T01:57:41;99977.97;;;3.27;84.42
67980;BME280;54760;47.490;19.030;2022-12-07T02:00:09;99978.34;;;3.29;85.61
67980;BME280;54760;47.490;19.030;2022-12-07T02:02:38;99971.50;;;3.39;84.88
67980;BME280;54760;47.490;19.030;2022-12-07T02:05:06;99963.03;;;3.44;85.18
67980;BME280;54760;47.490;19.030;2022-12-07T02:07:34;99967.75;;;3.51;85.01
67980;BME280;54760;47.490;19.030;2022-12-07T02:10:22;99966.25;;;3.57;84.94
67980;BME280;54760;47.490;19.030;2022-12-07T02:13:19;99966.62;;;3.59;84.55
67980;BME280;54760;47.490;19.030;2022-12-07T02:23:57;99960.28;;;3.88;84.51
67980;BME280;54760;47.490;19.030;2022-12-07T02:29:10;99968.13;;;4.04;83.78
67980;BME280;54760;47.490;19.030;2022-12-07T02:31:44;99965.00;;;3.98;83.12
67980;BME280;54760;47.490;19.030;2022-12-07T02:34:19;99967.19;;;3.82;83.41
67980;BME280;54760;47.490;19.030;2022-12-07T02:36:54;99967.88;;;3.72;84.07
67980;BME280;54760;47.490;19.030;2022-12-07T02:39:31;99975.53;;;3.59;82.83
67980;BME280;54760;47.490;19.030;2022-12-07T02:42:03;99969.16;;;3.37;82.91
67980;BME280;54760;47.490;19.030;2022-12-07T02:44:32;99971.44;;;3.32;83.56
67980;BME280;54760;47.490;19.030;2022-12-07T02:47:02;99961.38;;;3.32;83.63
67980;BME280;54760;47.490;19.030;2022-12-07T02:49:30;99973.62;;;3.19;84.82
67980;BME280;54760;47.490;19.030;2022-12-07T02:51:55;99964.78;;;3.22;84.84
67980;BME280;54760;47.490;19.030;2022-12-07T02:54:21;99954.28;;;3.17;85.32
67980;BME280;54760;47.490;19.030;2022-12-07T03:00:01;99958.66;;;3.32;85.03
67980;BME280;54760;47.490;19.030;2022-12-07T03:08:17;99956.72;;;3.29;85.66
67980;BME280;54760;47.490;19.030;2022-12-07T03:13:44;99950.22;;;3.37;85.29
67980;BME280;54760;47.490;19.030;2022-12-07T03:16:20;99949.88;;;3.42;85.70
67980;BME280;54760;47.490;19.030;2022-12-07T03:18:59;99942.34;;;3.22;86.47
67980;BME280;54760;47.490;19.030;2022-12-07T03:21:31;99949.13;;;3.45;85.38
67980;BME280;54760;47.490;19.030;2022-12-07T03:24:00;99953.09;;;3.55;84.78
67980;BME280;54760;47.490;19.030;2022-12-07T03:26:32;99949.97;;;3.53;85.30
67980;BME280;54760;47.490;19.030;2022-12-07T03:29:02;99943.03;;;3.56;84.86
67980;BME280;54760;47.490;19.030;2022-12-07T03:31:37;99947.69;;;3.59;84.65
67980;BME280;54760;47.490;19.030;2022-12-07T03:36:45;99949.94;;;3.49;85.54
67980;BME280;54760;47.490;19.030;2022-12-07T03:41:54;99952.38;;;3.65;85.66
67980;BME280;54760;47.490;19.030;2022-12-07T03:44:20;99956.25;;;3.64;86.09
67980;BME280;54760;47.490;19.030;2022-12-07T03:49:46;99962.03;;;3.63;86.10
67980;BME280;54760;47.490;19.030;2022-12-07T03:55:25;99956.69;;;3.73;86.42
67980;BME280;54760;47.490;19.030;2022-12-07T03:57:41;99961.34;;;3.73;86.66
67980;BME280;54760;47.490;19.030;2022-12-07T04:00:09;99963.34;;;3.83;86.39
67980;BME280;54760;47.490;19.030;2022-12-07T04:02:35;99968.31;;;3.74;86.38
67980;BME280;54760;47.490;19.030;2022-12-07T04:05:02;99980.13;;;3.52;87.42
67980;BME280;54760;47.490;19.030;2022-12-07T04:07:27;99978.72;;;3.72;86.77
67980;BME280;54760;47.490;19.030;2022-12-07T04:09:53;99970.25;;;3.33;87.17
67980;BME280;54760;47.490;19.030;2022-12-07T04:12:20;99970.25;;;3.29;89.03
67980;BME280;54760;47.490;19.030;2022-12-07T04:14:46;99961.34;;;3.73;88.71
67980;BME280;54760;47.490;19.030;2022-12-07T04:17:11;99968.06;;;3.93;88.29
67980;BME280;54760;47.490;19.030;2022-12-07T04:19:36;99972.09;;;4.17;87.64
67980;BME280;54760;47.490;19.030;2022-12-07T04:22:03;99969.78;;;4.22;87.57
67980;BME280;54760;47.490;19.030;2022-12-07T04:24:29;99975.03;;;3.94;89.13
67980;BME280;54760;47.490;19.030;2022-12-07T04:26:54;99966.94;;;4.01;88.87
67980;BME280;54760;47.490;19.030;2022-12-07T04:29:20;99977.47;;;4.10;89.24
67980;BME280;54760;47.490;19.030;2022-12-07T04:31:46;99969.03;;;4.25;88.71
67980;BME280;54760;47.490;19.030;2022-12-07T04:34:13;99963.66;;;4.36;88.16
67980;BME280;54760;47.490;19.030;2022-12-07T04:36:39;99973.34;;;4.33;88.78
67980;BME280;54760;47.490;19.030;2022-12-07T04:39:05;99968.38;;;4.46;88.20
67980;BME280;54760;47.490;19.030;2022-12-07T04:41:32;99975.28;;;4.29;89.47
67980;BME280;54760;47.490;19.030;2022-12-07T04:43:59;99962.97;;;4.50;88.57
67980;BME280;54760;47.490;19.030;2022-12-07T04:46:27;99972.22;;;4.45;88.48
67980;BME280;54760;47.490;19.030;2022-12-07T04:48:53;99969.94;;;4.47;88.35
67980;BME280;54760;47.490;19.030;2022-12-07T04:51:21;99976.84;;;4.37;89.30
67980;BME280;54760;47.490;19.030;2022-12-07T04:53:47;99971.03;;;4.35;89.88
67980;BME280;54760;47.490;19.030;2022-12-07T04:56:14;99974.19;;;4.48;89.01
67980;BME280;54760;47.490;19.030;2022-12-07T04:58:40;99979.84;;;4.18;90.96
67980;BME280;54760;47.490;19.030;2022-12-07T05:01:05;99980.75;;;4.44;89.82
67980;BME280;54760;47.490;19.030;2022-12-07T05:03:31;99978.34;;;4.31;90.24
67980;BME280;54760;47.490;19.030;2022-12-07T05:05:56;99973.78;;;4.43;90.26
67980;BME280;54760;47.490;19.030;2022-12-07T05:08:21;99964.56;;;4.54;89.69
67980;BME280;54760;47.490;19.030;2022-12-07T05:10:48;99965.31;;;4.55;89.30
67980;BME280;54760;47.490;19.030;2022-12-07T05:13:14;99961.44;;;4.49;89.61
67980;BME280;54760;47.490;19.030;2022-12-07T05:15:40;99961.03;;;4.50;90.54
67980;BME280;54760;47.490;19.030;2022-12-07T05:18:06;99958.38;;;4.57;90.31
67980;BME280;54760;47.490;19.030;2022-12-07T05:20:31;99963.44;;;4.66;90.38
67980;BME280;54760;47.490;19.030;2022-12-07T05:22:57;99961.47;;;4.59;90.22
67980;BME280;54760;47.490;19.030;2022-12-07T05:25:23;99963.06;;;4.74;90.04
67980;BME280;54760;47.490;19.030;2022-12-07T05:27:49;99970.09;;;4.86;89.37
67980;BME280;54760;47.490;19.030;2022-12-07T05:30:14;99957.72;;;4.89;88.97
67980;BME280;54760;47.490;19.030;2022-12-07T05:32:40;99950.75;;;4.98;88.12
67980;BME280;54760;47.490;19.030;2022-12-07T05:35:05;99945.31;;;4.91;88.11
67980;BME280;54760;47.490;19.030;2022-12-07T05:37:31;99944.53;;;4.84;87.97
67980;BME280;54760;47.490;19.030;2022-12-07T05:39:56;99953.03;;;4.78;88.65
67980;BME280;54760;47.490;19.030;2022-12-07T05:42:22;99949.09;;;4.62;89.49
67980;BME280;54760;47.490;19.030;2022-12-07T05:44:47;99950.25;;;4.64;89.67
67980;BME280;54760;47.490;19.030;2022-12-07T05:47:14;99949.44;;;4.60;89.72
67980;BME280;54760;47.490;19.030;2022-12-07T05:49:40;99961.38;;;4.45;91.68
67980;BME280;54760;47.490;19.030;2022-12-07T05:52:05;99961.31;;;4.27;93.62
67980;BME280;54760;47.490;19.030;2022-12-07T05:54:31;99960.59;;;4.37;92.81
67980;BME280;54760;47.490;19.030;2022-12-07T05:56:56;99960.19;;;4.35;91.86
67980;BME280;54760;47.490;19.030;2022-12-07T05:59:21;99956.72;;;4.39;91.25
67980;BME280;54760;47.490;19.030;2022-12-07T06:01:57;99954.44;;;4.48;91.31
67980;BME280;54760;47.490;19.030;2022-12-07T06:04:24;99954.81;;;4.39;91.63
67980;BME280;54760;47.490;19.030;2022-12-07T06:06:50;99948.25;;;4.47;90.57
67980;BME280;54760;47.490;19.030;2022-12-07T06:09:16;99952.88;;;4.47;90.98
67980;BME280;54760;47.490;19.030;2022-12-07T06:11:41;99962.56;;;4.44;90.15
67980;BME280;54760;47.490;19.030;2022-12-07T06:14:25;99954.81;;;4.43;90.26
67980;BME280;54760;47.490;19.030;2022-12-07T06:16:51;99966.28;;;4.15;92.32
67980;BME280;54760;47.490;19.030;2022-12-07T06:19:16;99969.34;;;4.10;92.67
67980;BME280;54760;47.490;19.030;2022-12-07T06:21:42;99961.69;;;4.26;92.36
67980;BME280;54760;47.490;19.030;2022-12-07T06:24:10;99965.16;;;4.26;93.37
67980;BME280;54760;47.490;19.030;2022-12-07T06:26:36;99958.28;;;4.40;91.65
67980;BME280;54760;47.490;19.030;2022-12-07T06:29:01;99960.66;;;4.48;91.19
67980;BME280;54760;47.490;19.030;2022-12-07T06:31:27;99956.06;;;4.59;90.62
67980;BME280;54760;47.490;19.030;2022-12-07T06:33:59;99948.66;;;4.53;90.24
67980;BME280;54760;47.490;19.030;2022-12-07T06:36:25;99953.63;;;4.40;91.76
67980;BME280;54760;47.490;19.030;2022-12-07T06:38:50;99953.28;;;4.49;90.01
67980;BME280;54760;47.490;19.030;2022-12-07T06:41:16;99963.00;;;4.57;90.00
67980;BME280;54760;47.490;19.030;2022-12-07T06:43:41;99965.28;;;4.44;90.77
67980;BME280;54760;47.490;19.030;2022-12-07T06:46:07;99976.53;;;4.53;91.21
67980;BME280;54760;47.490;19.030;2022-12-07T06:48:33;99971.50;;;4.55;90.63
67980;BME280;54760;47.490;19.030;2022-12-07T06:50:58;99978.50;;;4.60;90.32
67980;BME280;54760;47.490;19.030;2022-12-07T06:53:24;99984.63;;;4.39;91.43
67980;BME280;54760;47.490;19.030;2022-12-07T06:55:49;99979.13;;;4.32;92.88
67980;BME280;54760;47.490;19.030;2022-12-07T06:58:15;99984.28;;;4.51;92.16
67980;BME280;54760;47.490;19.030;2022-12-07T07:00:40;99984.69;;;4.57;91.72
67980;BME280;54760;47.490;19.030;2022-12-07T07:03:06;99982.41;;;4.66;91.30
67980;BME280;54760;47.490;19.030;2022-12-07T07:05:31;99978.59;;;4.74;90.03
67980;BME280;54760;47.490;19.030;2022-12-07T07:07:56;99978.91;;;4.58;91.55
67980;BME280;54760;47.490;19.030;2022-12-07T07:10:22;99974.78;;;4.96;89.41
67980;BME280;54760;47.490;19.030;2022-12-07T07:12:47;99983.31;;;4.98;88.53
67980;BME280;54760;47.490;19.030;2022-12-07T07:15:12;99979.78;;;4.94;89.22
67980;BME280;54760;47.490;19.030;2022-12-07T07:17:38;99978.22;;;4.86;89.12
67980;BME280;54760;47.490;19.030;2022-12-07T07:20:04;99979.75;;;4.80;90.45
67980;BME280;54760;47.490;19.030;2022-12-07T07:22:29;99988.69;;;4.91;89.52
67980;BME280;54760;47.490;19.030;2022-12-07T07:24:55;99978.59;;;4.81;90.06
67980;BME280;54760;47.490;19.030;2022-12-07T07:27:20;99983.19;;;4.63;91.96
67980;BME280;54760;47.490;19.030;2022-12-07T07:29:46;99989.09;;;4.93;89.78
67980;BME280;54760;47.490;19.030;2022-12-07T07:32:11;99983.66;;;4.90;89.68
67980;BME280;54760;47.490;19.030;2022-12-07T07:34:37;99992.25;;;5.09;89.09
67980;BME280;54760;47.490;19.030;2022-12-07T07:37:02;99978.63;;;4.92;89.13
67980;BME280;54760;47.490;19.030;2022-12-07T07:39:28;99978.19;;;4.72;90.66
67980;BME280;54760;47.490;19.030;2022-12-07T07:41:53;99983.28;;;4.88;90.64
67980;BME280;54760;47.490;19.030;2022-12-07T07:44:18;99977.91;;;5.05;89.28
67980;BME280;54760;47.490;19.030;2022-12-07T07:46:44;99980.56;;;4.88;90.02
67980;BME280;54760;47.490;19.030;2022-12-07T07:49:10;99973.59;;;4.87;89.38
67980;BME280;54760;47.490;19.030;2022-12-07T07:51:36;99972.38;;;4.84;90.13
67980;BME280;54760;47.490;19.030;2022-12-07T07:54:01;99980.16;;;4.89;89.99
67980;BME280;54760;47.490;19.030;2022-12-07T07:56:26;99976.38;;;5.11;89.73
67980;BME280;54760;47.490;19.030;2022-12-07T07:58:52;99980.22;;;5.07;89.41
67980;BME280;54760;47.490;19.030;2022-12-07T08:01:17;99979.84;;;5.15;89.07
67980;BME280;54760;47.490;19.030;2022-12-07T08:03:45;99983.34;;;5.12;89.09
67980;BME280;54760;47.490;19.030;2022-12-07T08:06:11;99990.69;;;5.05;90.31
67980;BME280;54760;47.490;19.030;2022-12-07T08:08:36;99981.03;;;5.21;89.61
67980;BME280;54760;47.490;19.030;2022-12-07T08:11:05;99989.94;;;5.18;90.74
67980;BME280;54760;47.490;19.030;2022-12-07T08:13:30;99986.47;;;5.21;90.44
67980;BME280;54760;47.490;19.030;2022-12-07T08:15:56;99991.94;;;5.50;88.93
67980;BME280;54760;47.490;19.030;2022-12-07T08:18:21;99995.81;;;5.59;88.21
67980;BME280;54760;47.490;19.030;2022-12-07T08:20:47;99988.84;;;5.69;87.08
67980;BME280;54760;47.490;19.030;2022-12-07T08:23:12;99999.72;;;5.80;86.94
67980;BME280;54760;47.490;19.030;2022-12-07T08:25:38;99995.47;;;5.89;85.74
67980;BME280;54760;47.490;19.030;2022-12-07T08:28:04;99993.53;;;5.93;85.82
67980;BME280;54760;47.490;19.030;2022-12-07T08:30:29;99992.31;;;6.30;84.60
67980;BME280;54760;47.490;19.030;2022-12-07T08:32:55;99992.72;;;6.18;84.46
67980;BME280;54760;47.490;19.030;2022-12-07T08:35:21;100003.94;;;6.41;84.28
67980;BME280;54760;47.490;19.030;2022-12-07T08:37:47;99993.78;;;6.56;83.67
67980;BME280;54760;47.490;19.030;2022-12-07T08:40:13;99997.97;;;6.81;82.91
67980;BME280;54760;47.490;19.030;2022-12-07T08:42:42;99997.97;;;6.81;81.25
67980;BME280;54760;47.490;19.030;2022-12-07T08:45:09;100002.69;;;6.70;82.90
67980;BME280;54760;47.490;19.030;2022-12-07T08:47:37;100009.47;;;7.17;81.21
67980;BME280;54760;47.490;19.030;2022-12-07T08:50:06;100013.31;;;7.23;79.97
67980;BME280;54760;47.490;19.030;2022-12-07T08:52:34;100008.72;;;7.10;81.41
67980;BME280;54760;47.490;19.030;2022-12-07T08:55:01;100000.81;;;7.36;79.13
67980;BME280;54760;47.490;19.030;2022-12-07T08:57:27;100003.06;;;7.52;78.88
67980;BME280;54760;47.490;19.030;2022-12-07T08:59:53;100006.87;;;7.58;78.39
67980;BME280;54760;47.490;19.030;2022-12-07T09:02:19;100002.28;;;7.48;76.28
67980;BME280;54760;47.490;19.030;2022-12-07T09:04:45;99999.38;;;7.18;76.07
67980;BME280;54760;47.490;19.030;2022-12-07T09:07:10;100003.75;;;7.60;75.49
67980;BME280;54760;47.490;19.030;2022-12-07T09:09:36;100007.72;;;7.52;74.87
67980;BME280;54760;47.490;19.030;2022-12-07T09:12:01;100002.25;;;7.55;73.68
67980;BME280;54760;47.490;19.030;2022-12-07T09:14:27;99996.97;;;7.82;74.78
67980;BME280;54760;47.490;19.030;2022-12-07T09:16:54;100004.72;;;7.87;73.35
67980;BME280;54760;47.490;19.030;2022-12-07T09:19:19;99993.81;;;8.28;72.04
67980;BME280;54760;47.490;19.030;2022-12-07T09:21:44;99991.44;;;7.93;73.02
67980;BME280;54760;47.490;19.030;2022-12-07T09:24:12;99983.97;;;7.97;73.26
67980;BME280;54760;47.490;19.030;2022-12-07T09:26:37;99984.22;;;8.13;72.57
67980;BME280;54760;47.490;19.030;2022-12-07T09:29:04;99974.59;;;8.05;73.18
67980;BME280;54760;47.490;19.030;2022-12-07T09:31:30;99980.28;;;7.76;72.02
67980;BME280;54760;47.490;19.030;2022-12-07T09:33:57;99985.44;;;8.08;71.15
67980;BME280;54760;47.490;19.030;2022-12-07T09:36:24;99991.63;;;8.16;72.17
67980;BME280;54760;47.490;19.030;2022-12-07T09:38:50;99984.69;;;8.49;67.98
67980;BME280;54760;47.490;19.030;2022-12-07T09:41:15;99986.09;;;8.23;69.63
67980;BME280;54760;47.490;19.030;2022-12-07T09:43:41;99982.97;;;8.21;66.91
67980;BME280;54760;47.490;19.030;2022-12-07T09:46:13;99977.16;;;8.19;66.30
67980;BME280;54760;47.490;19.030;2022-12-07T09:48:39;99963.03;;;8.31;68.85
67980;BME280;54760;47.490;19.030;2022-12-07T09:51:20;99975.63;;;8.55;65.99
67980;BME280;54760;47.490;19.030;2022-12-07T09:53:47;99968.75;;;8.44;67.60
67980;BME280;54760;47.490;19.030;2022-12-07T09:56:14;99975.03;;;8.75;69.41
67980;BME280;54760;47.490;19.030;2022-12-07T09:58:41;99963.19;;;8.54;66.62
67980;BME280;54760;47.490;19.030;2022-12-07T10:03:35;99960.00;;;8.59;64.31
67980;BME280;54760;47.490;19.030;2022-12-07T10:06:02;99971.66;;;8.63;64.90
67980;BME280;54760;47.490;19.030;2022-12-07T10:08:28;99961.00;;;9.03;65.34
67980;BME280;54760;47.490;19.030;2022-12-07T10:10:55;99960.91;;;9.10;63.92
67980;BME280;54760;47.490;19.030;2022-12-07T10:13:46;99952.19;;;8.92;64.44
67980;BME280;54760;47.490;19.030;2022-12-07T10:18:51;99954.13;;;8.91;63.51
67980;BME280;54760;47.490;19.030;2022-12-07T10:21:27;99958.94;;;8.80;65.62
67980;BME280;54760;47.490;19.030;2022-12-07T10:24:05;99948.84;;;9.34;64.23
67980;BME280;54760;47.490;19.030;2022-12-07T10:26:36;99951.09;;;9.39;63.57
67980;BME280;54760;47.490;19.030;2022-12-07T10:29:32;99951.81;;;9.43;64.04
67980;BME280;54760;47.490;19.030;2022-12-07T10:32:29;99946.75;;;9.19;65.60
67980;BME280;54760;47.490;19.030;2022-12-07T10:37:47;99936.69;;;9.12;62.97
67980;BME280;54760;47.490;19.030;2022-12-07T10:40:33;99932.63;;;8.97;64.59
67980;BME280;54760;47.490;19.030;2022-12-07T10:43:05;99933.00;;;8.99;63.50
67980;BME280;54760;47.490;19.030;2022-12-07T10:45:32;99938.75;;;9.04;62.68
67980;BME280;54760;47.490;19.030;2022-12-07T10:48:22;99937.41;;;8.89;62.56
67980;BME280;54760;47.490;19.030;2022-12-07T10:50:55;99933.66;;;9.06;62.93
67980;BME280;54760;47.490;19.030;2022-12-07T10:59:42;99942.56;;;8.84;62.54
67980;BME280;54760;47.490;19.030;2022-12-07T11:05:06;99942.19;;;8.82;62.66
67980;BME280;54760;47.490;19.030;2022-12-07T11:10:59;99928.59;;;9.05;61.94
67980;BME280;54760;47.490;19.030;2022-12-07T11:13:52;99929.88;;;8.97;62.04
67980;BME280;54760;47.490;19.030;2022-12-07T11:16:50;99916.59;;;8.99;60.97
67980;BME280;54760;47.490;19.030;2022-12-07T11:19:49;99923.66;;;8.66;60.95
67980;BME280;54760;47.490;19.030;2022-12-07T11:33:46;99911.16;;;8.68;63.09
67980;BME280;54760;47.490;19.030;2022-12-07T11:36:33;99919.91;;;9.13;62.84
67980;BME280;54760;47.490;19.030;2022-12-07T11:39:16;99913.34;;;8.81;61.83
67980;BME280;54760;47.490;19.030;2022-12-07T11:41:51;99919.81;;;8.63;62.52
67980;BME280;54760;47.490;19.030;2022-12-07T11:47:05;99922.06;;;8.99;62.31
67980;BME280;54760;47.490;19.030;2022-12-07T11:52:20;99923.03;;;8.55;62.88
67980;BME280;54760;47.490;19.030;2022-12-07T11:54:50;99936.84;;;8.71;63.50
67980;BME280;54760;47.490;19.030;2022-12-07T11:57:39;99929.69;;;8.50;63.16
67980;BME280;54760;47.490;19.030;2022-12-07T12:00:14;99934.69;;;8.55;63.39
67980;BME280;54760;47.490;19.030;2022-12-07T12:02:50;99935.53;;;8.52;63.81
67980;BME280;54760;47.490;19.030;2022-12-07T12:05:24;99922.09;;;8.65;63.38
67980;BME280;54760;47.490;19.030;2022-12-07T12:08:05;99913.47;;;8.70;62.92
67980;BME280;54760;47.490;19.030;2022-12-07T12:21:46;99886.47;;;8.79;61.69
67980;BME280;54760;47.490;19.030;2022-12-07T12:24:24;99879.50;;;9.28;59.96
67980;BME280;54760;47.490;19.030;2022-12-07T12:26:59;99872.09;;;9.95;57.84
67980;BME280;54760;47.490;19.030;2022-12-07T12:29:32;99867.41;;;10.15;56.76
67980;BME280;54760;47.490;19.030;2022-12-07T12:32:21;99862.78;;;10.32;57.39
67980;BME280;54760;47.490;19.030;2022-12-07T12:42:55;99846.41;;;12.23;50.45
67980;BME280;54760;47.490;19.030;2022-12-07T12:45:23;99849.03;;;12.13;50.81
67980;BME280;54760;47.490;19.030;2022-12-07T12:50:35;99855.84;;;11.15;53.09
67980;BME280;54760;47.490;19.030;2022-12-07T13:00:42;99867.97;;;10.46;55.06
67980;BME280;54760;47.490;19.030;2022-12-07T13:03:26;99860.88;;;10.49;55.88
67980;BME280;54760;47.490;19.030;2022-12-07T13:06:18;99881.81;;;10.19;56.09
67980;BME280;54760;47.490;19.030;2022-12-07T13:08:45;99875.47;;;10.22;56.35
67980;BME280;54760;47.490;19.030;2022-12-07T13:11:28;99873.53;;;9.80;57.79
67980;BME280;54760;47.490;19.030;2022-12-07T13:16:58;99877.94;;;9.27;58.76
67980;BME280;54760;47.490;19.030;2022-12-07T13:19:53;99885.34;;;9.03;58.76
67980;BME280;54760;47.490;19.030;2022-12-07T13:25:19;99883.69;;;8.52;58.69
67980;BME280;54760;47.490;19.030;2022-12-07T13:27:56;99883.69;;;8.52;58.84
67980;BME280;54760;47.490;19.030;2022-12-07T13:30:22;99882.06;;;8.58;58.33
67980;BME280;54760;47.490;19.030;2022-12-07T13:32:55;99886.03;;;8.54;58.88
67980;BME280;54760;47.490;19.030;2022-12-07T13:35:31;99889.25;;;8.45;60.09
67980;BME280;54760;47.490;19.030;2022-12-07T13:37:58;99889.78;;;8.33;61.12
67980;BME280;54760;47.490;19.030;2022-12-07T13:40:24;99887.97;;;8.19;59.81
67980;BME280;54760;47.490;19.030;2022-12-07T13:43:03;99895.81;;;8.14;60.00
67980;BME280;54760;47.490;19.030;2022-12-07T13:45:31;99893.28;;;7.96;60.77
67980;BME280;54760;47.490;19.030;2022-12-07T13:48:32;99894.91;;;7.90;61.24
67980;BME280;54760;47.490;19.030;2022-12-07T13:51:00;99904.72;;;7.80;61.61
67980;BME280;54760;47.490;19.030;2022-12-07T13:53:26;99908.25;;;7.77;62.07
67980;BME280;54760;47.490;19.030;2022-12-07T13:55:59;99914.41;;;7.85;62.32
67980;BME280;54760;47.490;19.030;2022-12-07T13:58:27;99913.03;;;7.63;63.24
67980;BME280;54760;47.490;19.030;2022-12-07T14:00:54;99914.47;;;7.81;62.47
67980;BME280;54760;47.490;19.030;2022-12-07T14:03:29;99909.87;;;7.71;62.94
67980;BME280;54760;47.490;19.030;2022-12-07T14:06:25;99910.53;;;7.86;63.12
67980;BME280;54760;47.490;19.030;2022-12-07T14:09:22;99908.31;;;7.70;63.47
67980;BME280;54760;47.490;19.030;2022-12-07T14:11:49;99909.75;;;7.86;63.97
67980;BME280;54760;47.490;19.030;2022-12-07T14:14:21;99903.19;;;7.79;64.18
67980;BME280;54760;47.490;19.030;2022-12-07T14:17:09;99891.50;;;7.79;65.07
67980;BME280;54760;47.490;19.030;2022-12-07T14:19:47;99900.94;;;7.67;66.05
67980;BME280;54760;47.490;19.030;2022-12-07T14:25:19;99903.78;;;7.53;65.54
67980;BME280;54760;47.490;19.030;2022-12-07T14:30:22;99903.13;;;7.42;66.66
67980;BME280;54760;47.490;19.030;2022-12-07T14:32:51;99908.94;;;7.44;66.52
67980;BME280;54760;47.490;19.030;2022-12-07T14:35:18;99904.06;;;7.21;68.09
67980;BME280;54760;47.490;19.030;2022-12-07T14:37:46;99899.81;;;7.17;68.04
67980;BME280;54760;47.490;19.030;2022-12-07T14:40:23;99903.06;;;6.94;69.05
67980;BME280;54760;47.490;19.030;2022-12-07T14:42:52;99904.41;;;7.27;67.63
67980;BME280;54760;47.490;19.030;2022-12-07T14:45:21;99916.16;;;7.17;69.39
67980;BME280;54760;47.490;19.030;2022-12-07T14:47:47;99920.78;;;7.20;68.21
67980;BME280;54760;47.490;19.030;2022-12-07T14:50:15;99918.50;;;7.11;68.06
67980;BME280;54760;47.490;19.030;2022-12-07T14:52:42;99914.72;;;6.94;70.55
67980;BME280;54760;47.490;19.030;2022-12-07T14:55:14;99926.50;;;6.70;71.94
67980;BME280;54760;47.490;19.030;2022-12-07T14:57:41;99926.63;;;6.42;73.74
67980;BME280;54760;47.490;19.030;2022-12-07T15:00:07;99918.53;;;7.08;68.45
67980;BME280;54760;47.490;19.030;2022-12-07T15:02:33;99923.25;;;7.04;70.15
67980;BME280;54760;47.490;19.030;2022-12-07T15:04:58;99924.19;;;6.65;71.62